X  CloseMetar Aviation Weather Data     EFPO Pori

Temperature

4°C Temperature

-1°C Dewpoint

70% Humidity



Wind

24 KM/H

15 MPH

 7 M/S

13 KTS



270°
Due West
Current Conditions

Clear Clear
Pressure 975.92 (hPa) - 28.82 (in)
Visibility 6.2 (mi) - 10 (km)
Airport
Airport-code EFPO

Location Pori 56 (km)

Metar:
EFPO 231020Z AUTO 27013KT 250V310 CAVOK 04/M01 Q0976

Time: 23-02-2020 12:20